Time;durP1;ratioP1;P1;durP2;ratioP2;P2;SDS_P1;SDS_P2;PMS_P1;PMS_P2;Temp;Humidity;BMP_temperature;BMP_pressure;BME280_temperature;BME280_humidity;BME280_pressure;Samples;Min_cycle;Max_cycle;Signal;HPM_P1;HPM_P2
2021/07/09 00:05:22;;;;;;;16.23;11.35;;;;;;;17.55;81.45;102091.53;10544098;28;20048;-62
2021/07/09 00:10:24;;;;;;;19.95;14.70;;;;;;;17.42;83.34;102085.34;10544495;28;20047;-62
2021/07/09 00:15:26;;;;;;;16.52;13.85;;;;;;;17.48;82.93;102081.44;10543913;28;20048;-63
2021/07/09 00:20:29;;;;;;;18.00;13.50;;;;;;;17.35;82.90;102079.59;10543537;28;20060;-63
2021/07/09 00:25:31;;;;;;;13.60;11.30;;;;;;;17.45;82.85;102085.16;10543612;28;20188;-62
2021/07/09 00:30:34;;;;;;;17.67;11.82;;;;;;;17.25;83.75;102083.81;10543444;28;20055;-63
2021/07/09 00:35:36;;;;;;;16.35;11.60;;;;;;;17.49;81.72;102083.13;10542862;28;20412;-62
2021/07/09 00:40:39;;;;;;;13.05;10.93;;;;;;;17.31;83.24;102069.31;10542476;28;20052;-62
2021/07/09 00:45:41;;;;;;;20.33;13.68;;;;;;;17.04;84.27;102075.44;10541545;28;20044;-62
2021/07/09 00:50:44;;;;;;;16.75;13.10;;;;;;;17.25;82.13;102074.06;10542326;28;20407;-61
2021/07/09 00:55:46;;;;;;;23.35;16.55;;;;;;;17.15;82.41;102072.97;10541538;28;20081;-63
2021/07/09 01:00:49;;;;;;;19.95;16.95;;;;;;;16.80;84.22;102075.19;10541859;28;20052;-62
2021/07/09 01:05:51;;;;;;;23.45;19.55;;;;;;;16.77;84.01;102086.81;10542205;28;20044;-62
2021/07/09 01:10:54;;;;;;;22.38;18.35;;;;;;;16.94;83.83;102083.13;10540784;28;20502;-62
2021/07/09 01:15:56;;;;;;;23.73;17.83;;;;;;;16.90;83.08;102079.00;10541663;28;20052;-62
2021/07/09 01:20:58;;;;;;;26.25;17.52;;;;;;;17.08;82.49;102085.75;10541492;28;20063;-62
2021/07/09 01:26:01;;;;;;;21.35;17.25;;;;;;;16.97;83.10;102082.94;10541424;28;20051;-62
2021/07/09 01:31:06;;;;;;;22.10;16.80;;;;;;;17.01;82.58;102083.59;10541458;28;20054;-62
2021/07/09 01:36:09;;;;;;;22.90;16.95;;;;;;;16.88;82.68;102088.81;10539818;28;20477;-63
2021/07/09 01:41:11;;;;;;;20.30;14.38;;;;;;;17.12;81.44;102072.31;10540948;28;20072;-62
2021/07/09 01:46:14;;;;;;;21.45;16.88;;;;;;;16.75;82.37;102086.06;10541003;28;20040;-61
2021/07/09 01:51:16;;;;;;;24.92;16.30;;;;;;;16.79;82.31;102076.13;10541433;28;20055;-62
2021/07/09 01:56:19;;;;;;;24.92;16.77;;;;;;;16.74;82.41;102076.41;10540377;28;20047;-62
2021/07/09 02:01:21;;;;;;;25.50;17.40;;;;;;;16.66;82.56;102076.94;10539890;28;20048;-62
2021/07/09 02:06:24;;;;;;;29.80;18.00;;;;;;;16.59;83.49;102082.69;10539966;28;20047;-62
2021/07/09 02:11:26;;;;;;;29.52;17.80;;;;;;;16.68;82.90;102084.75;10539901;28;20529;-61
2021/07/09 02:16:28;;;;;;;25.75;17.27;;;;;;;16.55;82.68;102079.38;10539647;28;20055;-61
2021/07/09 02:21:31;;;;;;;21.58;16.42;;;;;;;16.59;82.72;102077.38;10540114;28;20102;-62
2021/07/09 02:26:33;;;;;;;27.33;16.73;;;;;;;16.61;81.98;102084.28;10539061;28;20048;-62
2021/07/09 02:31:35;;;;;;;21.92;15.98;;;;;;;16.80;80.47;102081.34;10539652;28;20051;-62
2021/07/09 02:36:38;;;;;;;26.17;17.63;;;;;;;16.38;82.87;102083.06;10539452;28;20044;-62
2021/07/09 02:41:40;;;;;;;28.02;17.25;;;;;;;16.28;84.28;102090.72;10539026;28;20050;-62
2021/07/09 02:46:42;;;;;;;28.95;19.02;;;;;;;16.23;84.08;102084.00;10538846;28;20525;-62
2021/07/09 02:51:45;;;;;;;23.88;16.52;;;;;;;16.51;83.03;102081.38;10539766;28;20075;-61
2021/07/09 02:56:48;;;;;;;25.67;16.60;;;;;;;16.11;84.79;102083.81;10538711;28;20051;-61
2021/07/09 03:01:50;;;;;;;25.70;17.45;;;;;;;16.05;84.66;102085.97;10538594;28;20047;-62
2021/07/09 03:06:52;;;;;;;31.13;18.55;;;;;;;16.00;84.76;102088.03;10538506;28;20044;-62
2021/07/09 03:11:56;;;;;;;27.88;17.17;;;;;;;15.91;85.01;102076.25;10542331;28;20093;-62
2021/07/09 03:16:58;;;;;;;28.55;17.00;;;;;;;15.97;84.50;102075.88;10545863;28;20048;-61
2021/07/09 03:22:00;;;;;;;22.50;15.77;;;;;;;16.01;84.37;102077.38;10546790;28;20060;-62
2021/07/09 03:27:04;;;;;;;20.48;15.52;;;;;;;15.90;84.22;102075.41;10545724;28;20050;-62
2021/07/09 03:32:07;;;;;;;25.02;15.23;;;;;;;15.85;84.90;102068.66;10544330;28;20048;-61
2021/07/09 03:37:10;;;;;;;23.98;15.65;;;;;;;15.74;85.38;102058.72;10545577;28;20051;-63
2021/07/09 03:42:12;;;;;;;23.15;15.23;;;;;;;15.50;85.19;102061.00;10545490;28;20055;-62
2021/07/09 03:47:14;;;;;;;26.27;15.15;;;;;;;15.44;85.37;102062.22;10545326;28;20066;-62
2021/07/09 03:52:17;;;;;;;24.52;14.30;;;;;;;15.35;85.14;102060.97;10545209;28;20491;-61
2021/07/09 03:57:19;;;;;;;20.60;12.75;;;;;;;15.56;83.79;102061.50;10544685;28;20404;-62
2021/07/09 04:02:21;;;;;;;22.95;13.38;;;;;;;15.27;84.57;102064.97;10545145;28;20045;-62
2021/07/09 04:07:24;;;;;;;23.35;14.27;;;;;;;15.09;85.57;102062.44;10543399;28;20048;-61
2021/07/09 04:12:26;;;;;;;17.85;12.45;;;;;;;15.12;85.18;102066.69;10544617;28;20052;-62
2021/07/09 04:17:28;;;;;;;15.20;11.68;;;;;;;15.31;83.90;102064.69;10543884;28;20555;-62
2021/07/09 04:22:31;;;;;;;17.25;10.90;;;;;;;15.32;83.68;102066.41;10543515;28;20136;-62
2021/07/09 04:27:34;;;;;;;17.45;11.00;;;;;;;15.18;84.56;102072.47;10543838;28;20048;-62
2021/07/09 04:32:36;;;;;;;19.17;11.18;;;;;;;15.21;84.39;102074.94;10542233;28;20049;-61
2021/07/09 04:37:39;;;;;;;13.82;9.48;;;;;;;15.24;83.95;102077.38;10542938;28;20044;-63
2021/07/09 04:42:42;;;;;;;16.45;9.18;;;;;;;15.49;83.31;102083.06;10543087;28;20055;-62
2021/07/09 04:47:47;;;;;;;16.73;10.77;;;;;;;15.31;84.70;102075.25;10542753;28;20079;-62
2021/07/09 04:52:50;;;;;;;14.90;11.15;;;;;;;15.39;83.71;102080.09;10543102;28;20052;-61
2021/07/09 04:57:52;;;;;;;19.40;12.85;;;;;;;15.76;82.39;102073.56;10542258;28;20051;-61
2021/07/09 05:02:58;;;;;;;17.08;12.38;;;;;;;15.72;81.55;102072.00;10542325;28;20446;-62
2021/07/09 05:08:00;;;;;;;20.63;13.07;;;;;;;15.69;81.34;102066.91;10542502;28;20059;-61
2021/07/09 05:13:06;;;;;;;15.40;11.95;;;;;;;15.88;80.68;102071.13;10541907;28;20554;-61
2021/07/09 05:18:09;;;;;;;14.23;10.77;;;;;;;16.21;79.78;102073.53;10541849;28;20048;-63
2021/07/09 05:23:11;;;;;;;19.02;13.45;;;;;;;15.98;80.77;102077.56;10541890;28;20056;-62
2021/07/09 05:28:13;;;;;;;20.00;14.30;;;;;;;16.01;80.59;102077.38;10541629;28;20058;-62
2021/07/09 05:33:16;;;;;;;19.13;13.52;;;;;;;16.17;79.38;102087.88;10540284;28;20488;-63
2021/07/09 05:38:18;;;;;;;17.13;12.77;;;;;;;16.11;79.43;102085.63;10540669;28;20051;-61
2021/07/09 05:43:21;;;;;;;17.20;12.07;;;;;;;16.11;80.12;102086.44;10540068;28;20044;-61
2021/07/09 05:48:23;;;;;;;13.70;9.95;;;;;;;16.37;78.11;102083.16;10540287;28;20051;-61
2021/07/09 05:53:25;;;;;;;15.20;10.43;;;;;;;16.30;77.71;102086.19;10540508;28;20388;-62
2021/07/09 05:58:28;;;;;;;14.18;8.55;;;;;;;16.38;77.25;102084.88;10539364;28;20043;-61
2021/07/09 06:03:30;;;;;;;12.02;8.20;;;;;;;16.72;75.70;102086.25;10540060;28;20404;-61
2021/07/09 06:08:33;;;;;;;10.82;7.45;;;;;;;16.47;77.73;102079.00;10539931;28;20051;-62
2021/07/09 06:13:35;;;;;;;8.05;6.78;;;;;;;16.62;75.92;102079.84;10540461;28;20130;-62
2021/07/09 06:18:37;;;;;;;7.72;6.93;;;;;;;16.39;75.30;102092.72;10539552;28;20040;-62
2021/07/09 06:23:56;;;;;;;8.25;5.15;;;;;;;16.41;74.64;102089.94;10539492;28;20097;-63
2021/07/09 06:28:58;;;;;;;6.10;5.50;;;;;;;16.86;73.95;102093.34;10538936;28;20501;-61
2021/07/09 06:34:01;;;;;;;8.55;6.47;;;;;;;16.74;73.70;102102.88;10539059;28;20056;-62
2021/07/09 06:39:04;;;;;;;7.25;5.80;;;;;;;16.97;72.32;102100.59;10539203;28;20055;-61
2021/07/09 06:44:06;;;;;;;9.75;7.15;;;;;;;16.94;72.76;102104.28;10539466;28;20044;-61
2021/07/09 06:49:09;;;;;;;9.02;6.93;;;;;;;17.18;72.13;102109.81;10547210;28;20044;-62
2021/07/09 06:54:11;;;;;;;9.30;7.40;;;;;;;17.43;72.28;102114.38;10547682;28;20051;-62
2021/07/09 06:59:14;;;;;;;9.27;8.02;;;;;;;17.30;71.94;102102.00;10547140;28;20055;-62
2021/07/09 07:04:16;;;;;;;9.18;6.95;;;;;;;17.49;70.17;102107.81;10546869;28;20076;-61
2021/07/09 07:09:20;;;;;;;12.68;7.22;;;;;;;17.86;69.54;102107.16;10547328;28;20054;-62
2021/07/09 07:14:23;;;;;;;6.60;5.82;;;;;;;18.36;68.88;102109.00;10546475;28;20117;-61
2021/07/09 07:19:25;;;;;;;8.02;5.53;;;;;;;18.69;68.00;102112.91;10546150;28;20040;-62
2021/07/09 07:24:30;;;;;;;8.45;6.28;;;;;;;18.92;67.09;102107.78;10546381;28;20064;-63
2021/07/09 07:29:33;;;;;;;6.47;5.20;;;;;;;19.00;68.11;102104.59;10545867;28;20051;-62
2021/07/09 07:34:36;;;;;;;8.43;6.80;;;;;;;19.20;66.73;102103.09;10545627;28;20376;-62
2021/07/09 07:39:42;;;;;;;7.38;5.80;;;;;;;19.48;66.02;102099.25;10545576;28;20126;-61
2021/07/09 07:44:44;;;;;;;7.90;6.30;;;;;;;19.79;64.61;102099.66;10545429;28;20055;-62
2021/07/09 07:49:46;;;;;;;8.63;5.45;;;;;;;19.76;63.66;102099.88;10545400;28;20047;-62
2021/07/09 07:54:49;;;;;;;7.15;6.10;;;;;;;20.04;63.51;102093.31;10544996;28;20048;-61
2021/07/09 07:59:51;;;;;;;6.28;3.55;;;;;;;19.91;62.82;102096.06;10543845;28;20044;-61
2021/07/09 08:04:53;;;;;;;5.07;3.50;;;;;;;20.32;61.32;102096.47;10544878;28;20051;-62
2021/07/09 08:09:56;;;;;;;6.15;5.43;;;;;;;20.59;60.22;102096.09;10544738;28;20126;-62
2021/07/09 08:14:58;;;;;;;6.95;6.28;;;;;;;21.16;60.47;102104.84;10544271;28;20381;-62
2021/07/09 08:20:01;;;;;;;7.85;6.15;;;;;;;21.58;60.33;102101.47;10544229;28;20044;-62
2021/07/09 08:25:07;;;;;;;6.05;4.97;;;;;;;22.22;57.35;102109.28;10544009;28;20052;-62
2021/07/09 08:30:10;;;;;;;4.95;4.15;;;;;;;22.46;56.10;102097.53;10543864;28;20503;-61
2021/07/09 08:35:12;;;;;;;4.00;3.30;;;;;;;22.93;55.69;102097.78;10544101;28;20048;-61
2021/07/09 08:40:25;;;;;;;11.35;5.70;;;;;;;23.10;55.22;102095.44;10543854;28;20086;-61
2021/07/09 08:45:27;;;;;;;5.63;4.72;;;;;;;23.34;55.59;102097.72;10543004;28;20070;-62
2021/07/09 08:50:30;;;;;;;7.55;4.78;;;;;;;23.10;54.61;102098.97;10542865;28;20056;-62
2021/07/09 08:55:32;;;;;;;8.95;5.43;;;;;;;23.62;53.45;102089.81;10543369;28;20044;-61
2021/07/09 09:00:34;;;;;;;8.07;6.82;;;;;;;23.42;52.06;102088.97;10542087;28;20483;-62
2021/07/09 09:05:37;;;;;;;8.73;7.20;;;;;;;24.11;53.24;102090.59;10541935;28;20503;-61
2021/07/09 09:10:42;;;;;;;10.88;9.23;;;;;;;23.55;52.78;102082.38;10540824;28;20522;-62
2021/07/09 09:16:05;;;;;;;9.57;6.93;;;;;;;24.42;53.78;102079.63;10540792;28;20048;-62
2021/07/09 09:21:11;;;;;;;9.20;7.60;;;;;;;24.04;53.69;102076.97;10541775;28;20056;-62
2021/07/09 09:26:14;;;;;;;14.90;9.27;;;;;;;24.05;52.30;102069.78;10541555;28;20051;-62
2021/07/09 09:31:25;;;;;;;10.80;7.68;;;;;;;25.26;51.30;102064.31;10523494;28;20052;-62
2021/07/09 09:36:27;;;;;;;;;;;;;;;23.45;52.98;102070.00;10540873;28;20542;-61
2021/07/09 09:41:31;;;;;;;11.63;9.30;;;;;;;23.88;52.94;102071.38;10541372;28;19920;-63
2021/07/09 09:46:33;;;;;;;9.43;7.78;;;;;;;25.12;53.43;102066.53;10540594;28;20051;-61
2021/07/09 09:51:37;;;;;;;9.40;8.38;;;;;;;23.13;53.76;102068.44;10540468;28;20464;-61
2021/07/09 09:56:43;;;;;;;9.68;7.70;;;;;;;25.21;50.52;102068.28;10539144;28;20051;-62
2021/07/09 10:01:56;;;;;;;9.13;7.82;;;;;;;25.26;53.05;102067.00;10540326;28;20056;-61
2021/07/09 10:07:00;;;;;;;10.27;8.80;;;;;;;24.16;52.49;102064.25;10540201;28;20105;-62
2021/07/09 10:12:05;;;;;;;8.85;6.78;;;;;;;22.73;56.52;102064.88;10539780;28;20082;-62
2021/07/09 10:17:09;;;;;;;7.90;6.93;;;;;;;24.41;52.65;102062.72;10538444;28;20044;-61
2021/07/09 10:22:11;;;;;;;9.82;7.30;;;;;;;24.27;53.79;102052.50;10538629;28;20059;-61
2021/07/09 10:27:22;;;;;;;8.75;7.22;;;;;;;26.13;47.58;102058.09;10539446;28;20521;-62
2021/07/09 10:32:34;;;;;;;;;;;;;;;23.56;55.76;102054.66;10538912;28;20059;-63
2021/07/09 10:37:38;;;;;;;8.48;6.70;;;;;;;22.70;57.41;102059.81;10540077;28;20016;-62
2021/07/09 10:42:41;;;;;;;7.50;6.13;;;;;;;24.78;51.03;102048.47;10539477;28;20052;-62
2021/07/09 10:48:09;;;;;;;9.07;5.57;;;;;;;24.01;53.71;102044.31;10539194;28;20427;-62
2021/07/09 10:53:11;;;;;;;6.45;5.85;;;;;;;25.91;51.29;102037.16;10539509;28;20044;-61
2021/07/09 10:58:33;;;;;;;7.47;5.93;;;;;;;24.00;51.77;102048.81;10539411;28;20090;-60
2021/07/09 11:03:48;;;;;;;5.43;4.90;;;;;;;22.56;54.04;102054.84;10539103;28;20044;-60
2021/07/09 11:09:01;;;;;;;8.45;6.43;;;;;;;22.72;55.52;102047.16;10538624;28;20492;-59
2021/07/09 11:14:13;;;;;;;8.45;7.30;;;;;;;23.60;54.54;102044.50;10539051;28;20054;-59
2021/07/09 11:19:29;;;;;;;5.65;4.82;;;;;;;23.09;51.76;102040.34;10539178;28;20127;-59
2021/07/09 11:24:49;;;;;;;8.30;6.78;;;;;;;25.50;47.52;102035.06;10539482;28;20056;-59
2021/07/09 11:29:59;;;;;;;5.97;5.45;;;;;;;27.35;45.13;102026.34;10538497;28;20587;-59
2021/07/09 11:35:07;;;;;;;8.40;6.80;;;;;;;27.86;44.34;102022.56;10544225;28;20492;-62
2021/07/09 11:40:16;;;;;;;7.90;7.07;;;;;;;25.64;44.58;102027.41;10546240;28;20071;-59
2021/07/09 11:45:19;;;;;;;7.13;5.65;;;;;;;27.39;41.57;102019.59;10545916;28;20040;-60
2021/07/09 11:50:21;;;;;;;9.05;6.95;;;;;;;24.50;49.20;102034.22;10544979;28;20051;-59
2021/07/09 11:55:31;;;;;;;7.10;6.50;;;;;;;23.70;51.08;102032.00;10545057;28;20056;-62
2021/07/09 12:00:34;;;;;;;7.37;5.53;;;;;;;25.18;46.00;102030.22;10545093;28;20059;-62
2021/07/09 12:05:37;;;;;;;8.05;6.15;;;;;;;24.48;49.11;102020.16;10544980;28;20048;-62
2021/07/09 12:10:42;;;;;;;9.15;6.93;;;;;;;24.38;50.81;102022.06;10544391;28;20052;-61
2021/07/09 12:15:46;;;;;;;11.20;7.90;;;;;;;25.04;48.25;102013.69;10544414;28;20403;-62
2021/07/09 12:20:48;;;;;;;10.63;8.57;;;;;;;26.33;47.07;102013.03;10543815;28;20079;-62
2021/07/09 12:25:57;;;;;;;10.50;8.63;;;;;;;25.84;46.90;102012.81;10543838;28;20399;-62
2021/07/09 12:31:02;;;;;;;9.65;7.32;;;;;;;27.91;42.59;102010.25;10542682;28;20080;-62
2021/07/09 12:36:10;;;;;;;10.82;7.82;;;;;;;25.91;48.79;102007.66;10544118;28;20118;-60
2021/07/09 12:41:14;;;;;;;9.40;6.80;;;;;;;27.50;42.84;102002.25;10543204;28;20381;-61
2021/07/09 12:46:25;;;;;;;8.05;5.80;;;;;;;28.71;39.51;101990.38;10542459;28;20051;-61
2021/07/09 12:51:43;;;;;;;6.38;5.78;;;;;;;27.10;43.85;101993.22;10542078;28;20048;-60
2021/07/09 12:56:50;;;;;;;10.15;7.13;;;;;;;27.66;44.80;101998.72;10543237;28;20052;-61
2021/07/09 13:01:59;;;;;;;10.32;6.95;;;;;;;25.07;47.61;101993.81;10542895;28;20048;-61
2021/07/09 13:07:06;;;;;;;8.75;7.00;;;;;;;24.52;50.84;101994.75;10542040;28;20056;-61
2021/07/09 13:12:18;;;;;;;14.45;8.30;;;;;;;27.47;46.13;101999.94;10542447;28;20052;-62
2021/07/09 13:17:22;;;;;;;9.20;8.30;;;;;;;27.94;44.35;101991.09;10541856;28;20044;-63
2021/07/09 13:22:34;;;;;;;10.35;9.25;;;;;;;28.76;40.13;101986.28;10541853;28;20480;-62
2021/07/09 13:27:37;;;;;;;11.30;9.55;;;;;;;28.19;41.61;101990.97;10541640;28;20054;-61
2021/07/09 13:32:40;;;;;;;12.05;10.38;;;;;;;27.85;43.70;101978.63;10541096;28;20575;-62
2021/07/09 13:37:44;;;;;;;10.00;8.13;;;;;;;26.20;46.73;101985.81;10541302;28;20052;-61
2021/07/09 13:42:46;;;;;;;13.52;9.10;;;;;;;24.91;48.58;101986.47;10541013;28;20056;-62
2021/07/09 13:47:48;;;;;;;15.00;9.70;;;;;;;24.66;50.16;101985.38;10540862;28;20047;-61
2021/07/09 13:52:55;;;;;;;13.02;11.38;;;;;;;24.51;51.96;101981.53;10540782;28;20052;-61
2021/07/09 13:57:57;;;;;;;16.80;13.13;;;;;;;24.00;54.26;101986.44;10539695;28;20048;-61
2021/07/09 14:03:00;;;;;;;18.60;14.07;;;;;;;24.43;52.33;101974.25;10540412;28;20081;-60
2021/07/09 14:08:02;;;;;;;23.60;13.40;;;;;;;25.72;52.24;101973.81;10540473;28;20044;-61
2021/07/09 14:13:05;;;;;;;17.80;12.73;;;;;;;28.45;42.06;101963.72;10540030;28;20431;-61
2021/07/09 14:18:07;;;;;;;12.57;11.27;;;;;;;28.46;43.05;101967.25;10540019;28;20044;-61
2021/07/09 14:23:10;;;;;;;15.30;11.77;;;;;;;27.15;45.70;101953.25;10539538;28;20056;-61
2021/07/09 14:28:12;;;;;;;17.08;14.13;;;;;;;26.69;46.92;101950.22;10539485;28;20426;-61
2021/07/09 14:33:16;;;;;;;13.95;11.93;;;;;;;26.62;48.11;101950.00;10540030;28;20052;-62
2021/07/09 14:38:18;;;;;;;14.07;11.40;;;;;;;26.42;44.04;101945.94;10539462;28;20044;-61
2021/07/09 14:43:20;;;;;;;19.02;12.52;;;;;;;28.10;42.21;101936.34;10539115;28;20051;-61
2021/07/09 14:48:23;;;;;;;13.60;10.43;;;;;;;25.81;48.79;101942.56;10539213;28;20044;-61
2021/07/09 14:53:25;;;;;;;13.50;10.73;;;;;;;24.72;53.52;101938.44;10539095;28;20476;-62
2021/07/09 14:58:28;;;;;;;12.95;10.57;;;;;;;24.39;50.26;101938.06;10538910;28;20377;-61
2021/07/09 15:03:30;;;;;;;16.92;14.48;;;;;;;24.04;50.15;101937.00;10537868;28;20044;-61
2021/07/09 15:08:32;;;;;;;18.90;14.30;;;;;;;24.28;50.89;101929.28;10544017;28;20050;-61
2021/07/09 15:13:34;;;;;;;15.20;13.63;;;;;;;24.73;51.34;101930.25;10547052;28;20052;-60
2021/07/09 15:18:37;;;;;;;16.08;14.32;;;;;;;24.97;52.10;101929.59;10546293;28;20401;-60
2021/07/09 15:23:39;;;;;;;17.90;14.70;;;;;;;25.81;49.32;101926.47;10546507;28;20075;-61
2021/07/09 15:28:42;;;;;;;17.27;14.38;;;;;;;24.82;52.32;101923.94;10545013;28;20411;-61
2021/07/09 15:33:44;;;;;;;20.08;16.13;;;;;;;23.79;54.05;101926.00;10544860;28;20511;-60
2021/07/09 15:38:46;;;;;;;15.43;13.75;;;;;;;24.33;53.71;101923.47;10545710;28;20055;-61
2021/07/09 15:43:49;;;;;;;17.65;15.40;;;;;;;23.80;55.00;101930.34;10546061;28;20506;-62
2021/07/09 15:49:02;;;;;;;14.70;12.43;;;;;;;25.37;50.42;101925.56;10545231;28;20487;-61
2021/07/09 15:54:05;;;;;;;12.63;10.35;;;;;;;24.23;51.59;101922.69;10544068;28;20515;-61
2021/07/09 15:59:07;;;;;;;13.07;11.63;;;;;;;24.47;49.84;101908.72;10545289;28;20052;-61
2021/07/09 16:04:09;;;;;;;17.35;13.10;;;;;;;23.80;50.01;101924.16;10544911;28;20040;-62
2021/07/09 16:09:21;;;;;;;14.32;11.25;;;;;;;25.26;48.58;101919.59;10544659;28;20509;-61
2021/07/09 16:14:24;;;;;;;17.00;12.38;;;;;;;25.58;47.39;101917.09;10543427;28;20483;-61
2021/07/09 16:19:26;;;;;;;11.88;10.68;;;;;;;25.07;48.48;101908.06;10542400;28;20055;-61
2021/07/09 16:24:29;;;;;;;13.25;10.75;;;;;;;25.07;48.15;101908.06;10544670;28;20047;-61
2021/07/09 16:29:31;;;;;;;12.70;10.70;;;;;;;24.86;48.67;101900.38;10544119;28;20048;-60
2021/07/09 16:34:33;;;;;;;14.00;10.07;;;;;;;25.14;48.46;101905.63;10543580;28;20051;-62
2021/07/09 16:39:36;;;;;;;11.90;10.50;;;;;;;24.88;49.05;101897.53;10543171;28;20513;-62
2021/07/09 16:44:38;;;;;;;28.20;21.52;;;;;;;25.20;48.39;101905.81;10543587;28;20048;-61
2021/07/09 16:49:41;;;;;;;33.38;27.48;;;;;;;24.29;49.34;101900.66;10543093;28;20052;-62
2021/07/09 16:54:43;;;;;;;13.45;12.02;;;;;;;25.02;49.17;101905.03;10543330;28;20059;-61
2021/07/09 16:59:45;;;;;;;14.00;11.75;;;;;;;24.58;48.82;101903.16;10543347;28;20051;-61
2021/07/09 17:04:48;;;;;;;12.02;10.82;;;;;;;24.54;48.00;101900.91;10542947;28;20054;-62
2021/07/09 17:09:50;;;;;;;21.95;12.90;;;;;;;24.20;50.79;101899.75;10542315;28;20044;-61
2021/07/09 17:14:52;;;;;;;17.83;14.50;;;;;;;24.16;49.81;101895.69;10542061;28;20051;-60
2021/07/09 17:19:55;;;;;;;14.95;13.32;;;;;;;22.88;52.73;101896.25;10541752;28;20044;-61
2021/07/09 17:24:57;;;;;;;30.85;24.63;;;;;;;23.15;52.76;101893.72;10541375;28;20400;-60
2021/07/09 17:30:00;;;;;;;28.73;23.83;;;;;;;22.36;52.26;101888.50;10541610;28;20051;-62
2021/07/09 17:35:02;;;;;;;16.40;14.55;;;;;;;22.18;53.44;101889.16;10541330;28;20048;-61
2021/07/09 17:40:05;;;;;;;19.17;15.05;;;;;;;21.78;54.96;101902.53;10541019;28;20483;-62
2021/07/09 17:45:23;;;;;;;18.48;15.23;;;;;;;21.46;54.69;101898.16;10541165;28;20044;-61
2021/07/09 17:50:26;;;;;;;15.27;13.77;;;;;;;21.97;54.66;101897.28;10540653;28;20509;-61
2021/07/09 17:55:28;;;;;;;16.30;14.38;;;;;;;22.22;54.14;101887.06;10541016;28;20082;-61
2021/07/09 18:00:30;;;;;;;27.88;15.13;;;;;;;22.09;53.82;101895.34;10540494;28;20051;-61
2021/07/09 18:05:33;;;;;;;19.15;13.13;;;;;;;22.00;54.91;101896.16;10540746;28;20052;-61
2021/07/09 18:10:36;;;;;;;14.82;13.25;;;;;;;21.91;54.58;101886.31;10540167;28;20058;-61
2021/07/09 18:15:39;;;;;;;12.57;11.38;;;;;;;21.64;54.30;101882.44;10540048;28;20044;-62
2021/07/09 18:20:42;;;;;;;10.65;8.90;;;;;;;21.44;53.93;101879.63;10538817;28;20086;-61
2021/07/09 18:25:44;;;;;;;11.55;8.68;;;;;;;21.26;55.98;101887.38;10539544;28;20056;-61
2021/07/09 18:30:48;;;;;;;15.80;11.73;;;;;;;21.31;53.01;101889.66;10539773;28;20044;-61
2021/07/09 18:35:51;;;;;;;13.50;9.15;;;;;;;21.04;53.28;101890.22;10539390;28;20101;-61
2021/07/09 18:40:53;;;;;;;7.53;6.53;;;;;;;21.04;54.78;101893.72;10540433;28;20049;-61
2021/07/09 18:45:55;;;;;;;8.18;6.53;;;;;;;20.71;56.69;101894.72;10548025;28;20059;-62
2021/07/09 18:50:58;;;;;;;8.02;6.60;;;;;;;20.40;58.37;101902.56;10547930;28;20051;-61
2021/07/09 18:56:00;;;;;;;5.65;4.70;;;;;;;20.35;57.97;101900.25;10546408;28;20510;-61
2021/07/09 19:01:05;;;;;;;6.93;5.70;;;;;;;20.38;58.59;101897.34;10547587;28;20052;-61
2021/07/09 19:06:08;;;;;;;6.82;4.97;;;;;;;20.08;58.21;101903.34;10547813;28;20044;-61
2021/07/09 19:11:13;;;;;;;6.55;4.95;;;;;;;19.65;60.36;101909.38;10547357;28;20044;-61
2021/07/09 19:16:15;;;;;;;6.35;5.20;;;;;;;19.56;62.19;101910.09;10546689;28;20052;-61
2021/07/09 19:21:17;;;;;;;8.80;5.45;;;;;;;19.25;63.78;101915.97;10545691;28;20040;-60
2021/07/09 19:26:21;;;;;;;7.07;5.15;;;;;;;19.15;64.22;101922.09;10545296;28;20059;-61
2021/07/09 19:31:24;;;;;;;6.25;5.68;;;;;;;18.86;66.58;101926.00;10546328;28;20475;-61
2021/07/09 19:36:26;;;;;;;8.73;5.45;;;;;;;18.65;66.98;101924.91;10546144;28;20076;-61
2021/07/09 19:41:28;;;;;;;6.03;5.43;;;;;;;18.40;67.76;101926.69;10546415;28;20051;-61
2021/07/09 19:46:31;;;;;;;7.30;6.05;;;;;;;18.19;68.68;101937.06;10545799;28;20044;-62
2021/07/09 19:51:33;;;;;;;7.25;5.95;;;;;;;17.91;70.06;101932.88;10546276;28;20123;-61
2021/07/09 19:56:36;;;;;;;5.88;5.28;;;;;;;17.89;69.84;101930.31;10544462;28;20048;-60
2021/07/09 20:01:38;;;;;;;9.50;5.57;;;;;;;17.58;71.11;101942.16;10545101;28;20048;-61
2021/07/09 20:06:41;;;;;;;6.72;5.40;;;;;;;17.61;70.95;101939.31;10544711;28;20410;-61
2021/07/09 20:11:44;;;;;;;6.45;5.80;;;;;;;17.39;71.88;101946.06;10544873;28;20054;-62
2021/07/09 20:16:46;;;;;;;9.45;5.65;;;;;;;17.11;72.04;101938.31;10544563;28;20048;-61
2021/07/09 20:21:49;;;;;;;6.32;5.30;;;;;;;17.13;71.74;101945.22;10544231;28;20048;-62
2021/07/09 20:26:51;;;;;;;8.60;6.40;;;;;;;17.19;71.46;101942.13;10543901;28;20047;-61
2021/07/09 20:31:54;;;;;;;6.75;5.82;;;;;;;16.94;72.26;101944.72;10544726;28;20054;-60
2021/07/09 20:36:56;;;;;;;8.68;7.72;;;;;;;16.83;73.41;101942.78;10543758;28;20044;-60
2021/07/09 20:41:59;;;;;;;8.63;6.57;;;;;;;16.82;72.90;101938.41;10543908;28;20498;-62
2021/07/09 20:47:01;;;;;;;8.40;6.63;;;;;;;16.75;73.36;101937.97;10543206;28;20051;-61
2021/07/09 20:52:04;;;;;;;8.48;6.38;;;;;;;16.45;74.62;101941.66;10543815;28;20051;-62
2021/07/09 20:57:07;;;;;;;6.35;5.85;;;;;;;16.44;74.66;101939.09;10542650;28;20044;-61
2021/07/09 21:02:10;;;;;;;8.85;6.78;;;;;;;16.48;74.82;101940.63;10541509;28;20048;-60
2021/07/09 21:07:12;;;;;;;6.57;5.80;;;;;;;16.44;74.67;101936.47;10541890;28;20502;-61
2021/07/09 21:12:23;;;;;;;8.18;6.53;;;;;;;16.35;74.68;101925.53;10542188;28;20055;-60
2021/07/09 21:17:26;;;;;;;8.18;6.20;;;;;;;16.25;75.77;101921.78;10541522;28;20424;-60
2021/07/09 21:22:28;;;;;;;6.13;5.53;;;;;;;16.29;74.82;101923.28;10541109;28;20407;-61
2021/07/09 21:27:30;;;;;;;8.27;6.35;;;;;;;16.12;75.73;101921.72;10541001;28;20044;-61
2021/07/09 21:32:33;;;;;;;9.52;6.57;;;;;;;16.18;76.26;101917.00;10541000;28;20051;-61
2021/07/09 21:37:36;;;;;;;8.70;6.78;;;;;;;16.04;76.14;101915.19;10540829;28;20456;-61
2021/07/09 21:42:38;;;;;;;6.82;6.22;;;;;;;15.93;76.50;101907.97;10541156;28;20369;-60
2021/07/09 21:47:41;;;;;;;9.45;6.97;;;;;;;15.95;76.74;101908.72;10539322;28;20577;-60
2021/07/09 21:52:44;;;;;;;10.30;7.22;;;;;;;15.96;76.44;101918.34;10540264;28;20051;-60
2021/07/09 21:57:46;;;;;;;7.28;6.18;;;;;;;16.08;76.32;101917.56;10539292;28;20052;-61
2021/07/09 22:02:52;;;;;;;7.97;7.05;;;;;;;16.00;75.87;101913.72;10541031;28;20086;-60
2021/07/09 22:07:55;;;;;;;9.73;8.63;;;;;;;15.83;76.38;101912.13;10540393;28;20052;-60
2021/07/09 22:12:57;;;;;;;9.23;7.68;;;;;;;15.84;76.75;101919.13;10539404;28;20051;-60
2021/07/09 22:17:59;;;;;;;9.60;8.63;;;;;;;15.67;77.83;101920.97;10539168;28;20048;-60
2021/07/09 22:23:02;;;;;;;8.65;7.75;;;;;;;15.82;76.94;101920.97;10539932;28;20142;-59
2021/07/09 22:28:04;;;;;;;15.25;10.07;;;;;;;15.50;78.81;101923.75;10539293;28;20051;-59
2021/07/09 22:33:07;;;;;;;10.98;9.48;;;;;;;15.47;79.16;101919.53;10539862;28;20048;-60
2021/07/09 22:38:09;;;;;;;12.98;10.18;;;;;;;15.47;79.97;101916.88;10539083;28;20044;-60
2021/07/09 22:43:11;;;;;;;12.00;9.27;;;;;;;15.61;79.45;101921.31;10539337;28;20044;-60
2021/07/09 22:48:14;;;;;;;14.73;10.23;;;;;;;15.40;80.02;101926.97;10539173;28;20048;-59
2021/07/09 22:53:16;;;;;;;14.57;10.48;;;;;;;15.43;80.38;101928.56;10539614;28;20063;-60
2021/07/09 22:58:37;;;;;;;14.15;10.65;;;;;;;15.44;80.55;101924.16;10539108;28;20529;-60
2021/07/09 23:03:39;;;;;;;13.50;10.85;;;;;;;15.48;80.42;101926.47;10522287;28;20131;-59